createdAt,value
2019-05-17T00:01:49.820Z,66.96
2019-05-17T00:04:36.421Z,66.71
2019-05-17T00:07:27.258Z,67.30
2019-05-17T00:10:12.175Z,67.77
2019-05-17T00:12:43.253Z,67.85
2019-05-17T00:15:24.034Z,68.08
2019-05-17T00:18:18.346Z,67.76
2019-05-17T00:20:51.382Z,67.83
2019-05-17T00:26:18.045Z,67.63
2019-05-17T00:28:52.807Z,66.55
2019-05-17T00:31:37.036Z,66.50
2019-05-17T00:34:17.226Z,66.67
2019-05-17T00:36:51.578Z,66.05
2019-05-17T00:39:41.638Z,66.91
2019-05-17T00:42:32.160Z,67.39
2019-05-17T00:45:09.376Z,67.91
2019-05-17T00:48:16.954Z,67.68
2019-05-17T00:50:54.203Z,67.61
2019-05-17T00:53:33.177Z,67.56
2019-05-17T00:59:12.648Z,68.64
2019-05-17T01:01:56.939Z,69.11
2019-05-17T01:04:28.999Z,69.76
2019-05-17T01:07:28.542Z,70.29
2019-05-17T01:10:27.337Z,70.29
2019-05-17T01:12:58.532Z,70.68
2019-05-17T01:15:44.610Z,70.89
2019-05-17T01:18:16.269Z,71.46
2019-05-17T01:20:59.906Z,71.71
2019-05-17T01:23:30.229Z,72.27
2019-05-17T01:26:07.513Z,72.27
2019-05-17T01:28:40.746Z,72.26
2019-05-17T01:31:17.089Z,71.96
2019-05-17T01:33:56.498Z,72.22
2019-05-17T01:36:40.373Z,72.49
2019-05-17T01:39:17.675Z,72.84
2019-05-17T01:41:47.732Z,72.93
2019-05-17T01:44:28.015Z,73.60
2019-05-17T01:47:20.628Z,73.69
2019-05-17T01:49:53.318Z,74.44
2019-05-17T01:52:23.092Z,74.83
2019-05-17T01:54:57.684Z,74.51
2019-05-17T01:57:37.266Z,75.26
2019-05-17T02:00:22.825Z,75.44
2019-05-17T02:03:02.202Z,75.23
2019-05-17T02:05:41.477Z,75.54
2019-05-17T02:08:11.354Z,75.30
2019-05-17T02:10:41.520Z,74.98
2019-05-17T02:13:42.549Z,74.81
2019-05-17T02:16:26.625Z,75.46
2019-05-17T02:19:46.519Z,75.93
2019-05-17T02:21:57.973Z,76.63
2019-05-17T02:24:39.940Z,76.01
2019-05-17T02:27:25.198Z,75.95
2019-05-17T02:30:13.537Z,76.44
2019-05-17T02:32:54.062Z,76.14
2019-05-17T02:35:36.465Z,76.32
2019-05-17T02:38:18.087Z,77.01
2019-05-17T02:40:57.507Z,76.90
2019-05-17T02:43:38.644Z,77.27
2019-05-17T02:46:06.247Z,77.73
2019-05-17T02:48:55.450Z,78.26
2019-05-17T02:51:33.888Z,78.31
2019-05-17T02:54:08.063Z,78.04
2019-05-17T02:56:38.255Z,78.82
2019-05-17T02:59:13.162Z,78.96
2019-05-17T03:02:12.634Z,78.50
2019-05-17T03:05:04.049Z,79.37
2019-05-17T03:07:53.627Z,79.15
2019-05-17T03:10:29.270Z,80.26
2019-05-17T03:13:05.143Z,80.51
2019-05-17T03:15:46.973Z,80.56
2019-05-17T03:18:36.683Z,80.67
2019-05-17T03:24:16.408Z,80.04
2019-05-17T03:27:02.903Z,79.67
2019-05-17T03:29:44.004Z,79.79
2019-05-17T03:32:36.100Z,80.16
2019-05-17T03:35:07.198Z,80.86
2019-05-17T03:37:53.958Z,79.79
2019-05-17T03:40:55.119Z,80.00
2019-05-17T03:43:13.790Z,79.80
2019-05-17T03:45:53.149Z,79.73
2019-05-17T03:48:23.866Z,80.04
2019-05-17T03:50:58.782Z,79.70
2019-05-17T03:53:33.633Z,79.78
2019-05-17T03:56:07.285Z,79.88
2019-05-17T03:58:46.425Z,80.26
2019-05-17T04:01:19.372Z,79.96
2019-05-17T04:03:54.123Z,79.48
2019-05-17T04:06:26.708Z,79.70
2019-05-17T04:09:03.616Z,79.71
2019-05-17T04:11:36.352Z,79.58
2019-05-17T04:14:09.305Z,79.28
2019-05-17T04:16:38.959Z,79.20
2019-05-17T04:20:16.078Z,78.57
2019-05-17T04:23:23.003Z,79.05
2019-05-17T04:26:26.903Z,79.04
2019-05-17T04:29:27.725Z,79.25
2019-05-17T04:32:32.989Z,78.35
2019-05-17T04:35:05.530Z,78.52
2019-05-17T04:38:23.634Z,78.59
2019-05-17T04:41:38.746Z,77.82
2019-05-17T04:43:45.099Z,78.39
2019-05-17T04:46:24.723Z,77.94
2019-05-17T04:49:14.926Z,77.59
2019-05-17T04:52:17.063Z,78.07
2019-05-17T04:54:46.873Z,77.34
2019-05-17T05:00:53.328Z,76.78
2019-05-17T05:04:03.994Z,75.21
2019-05-17T05:07:17.707Z,75.07
2019-05-17T05:10:02.988Z,74.01
2019-05-17T05:13:06.228Z,73.23
2019-05-17T05:16:09.955Z,72.26
2019-05-17T05:18:59.123Z,72.74
2019-05-17T05:21:46.403Z,71.99
2019-05-17T05:24:36.674Z,71.50
2019-05-17T05:27:35.876Z,71.01
2019-05-17T05:30:15.020Z,70.06
2019-05-17T05:40:21.350Z,65.69
2019-05-17T05:43:37.628Z,65.09
2019-05-17T05:46:12.778Z,64.02
2019-05-17T05:48:56.738Z,63.24
2019-05-17T05:52:13.675Z,63.35
2019-05-17T05:55:18.176Z,62.41
2019-05-17T06:07:14.498Z,61.07
2019-05-17T06:09:44.826Z,60.54
2019-05-17T16:39:17.942Z,46.30
2019-05-17T16:41:47.205Z,40.76
2019-05-17T16:44:16.511Z,40.62
2019-05-17T16:46:45.955Z,37.77
2019-05-17T16:49:15.309Z,35.75
2019-05-17T16:51:44.748Z,35.08
2019-05-17T16:54:14.118Z,36.34
2019-05-17T16:56:43.599Z,39.56
2019-05-17T16:59:12.920Z,36.86
2019-05-17T17:01:42.226Z,42.44
2019-05-17T17:04:11.604Z,47.41
2019-05-17T17:06:41.064Z,47.21
2019-05-17T17:09:10.677Z,48.77
2019-05-17T17:11:45.661Z,49.63
2019-05-17T17:14:13.711Z,49.33
2019-05-17T17:16:43.125Z,50.00
2019-05-17T17:19:12.545Z,51.46
2019-05-17T17:21:41.887Z,52.48
2019-05-17T17:24:11.247Z,54.30
2019-05-17T17:26:40.552Z,56.00
2019-05-17T17:29:12.973Z,57.12
2019-05-17T17:31:42.816Z,58.72
2019-05-17T17:34:12.244Z,59.81
2019-05-17T17:36:41.837Z,60.73
2019-05-17T17:39:11.283Z,59.71
2019-05-17T17:41:40.866Z,57.49
2019-05-17T17:44:10.531Z,54.77
2019-05-17T17:46:39.996Z,54.15
2019-05-17T17:49:09.432Z,52.95
2019-05-17T17:51:39.023Z,51.29
2019-05-17T17:54:08.576Z,51.87
2019-05-17T17:56:38.128Z,53.50
2019-05-17T17:59:07.636Z,58.34
2019-05-17T18:01:37.259Z,58.99
2019-05-17T18:04:06.858Z,59.90
2019-05-17T18:06:36.399Z,61.39
2019-05-17T18:09:06.518Z,63.56
2019-05-17T18:11:36.194Z,65.46
2019-05-17T18:14:13.245Z,66.69
2019-05-17T18:16:36.904Z,67.83
2019-05-17T18:19:06.333Z,68.54
2019-05-17T18:21:35.777Z,69.92
2019-05-17T18:24:05.455Z,70.59
2019-05-17T18:26:35.022Z,71.76
2019-05-17T18:29:07.827Z,71.90
2019-05-17T18:31:35.850Z,69.40
2019-05-17T18:34:05.972Z,69.54
2019-05-17T18:36:38.371Z,71.68
2019-05-17T18:39:08.002Z,74.22
2019-05-17T18:41:37.518Z,75.01
2019-05-17T18:44:07.075Z,75.32
2019-05-17T18:46:36.521Z,75.28
2019-05-17T18:49:06.004Z,74.89
2019-05-17T18:51:35.493Z,75.23
2019-05-17T18:54:06.109Z,74.65
2019-05-17T18:56:35.633Z,74.16
2019-05-17T18:59:05.129Z,73.77
2019-05-17T19:01:34.535Z,74.19
2019-05-17T19:04:04.136Z,75.81
2019-05-17T19:06:33.735Z,74.54
2019-05-17T19:09:03.419Z,74.54
2019-05-17T19:11:32.866Z,73.12
2019-05-17T19:14:02.326Z,73.73
2019-05-17T19:16:31.870Z,74.88
2019-05-17T19:19:01.454Z,76.07
2019-05-17T19:21:32.124Z,75.82
2019-05-17T19:24:01.669Z,76.76
2019-05-17T19:26:31.231Z,77.51
2019-05-17T19:29:00.772Z,75.91
2019-05-17T19:31:30.999Z,75.91
2019-05-17T19:34:00.845Z,75.95
2019-05-17T19:36:30.363Z,77.49
2019-05-17T19:39:00.029Z,77.56
2019-05-17T19:41:29.831Z,78.60
2019-05-17T19:43:59.833Z,78.60
2019-05-17T19:46:29.459Z,78.49
2019-05-17T19:48:58.919Z,79.13
2019-05-17T19:51:28.463Z,78.78
2019-05-17T19:53:57.985Z,78.71
2019-05-17T19:56:27.521Z,77.07
2019-05-17T19:58:56.953Z,76.60
2019-05-17T20:01:26.554Z,76.96
2019-05-17T20:03:56.215Z,77.78
2019-05-17T20:06:25.637Z,77.72
2019-05-17T20:08:55.090Z,77.62
2019-05-17T20:11:33.983Z,77.32
2019-05-17T20:13:55.762Z,77.93
2019-05-17T20:16:26.326Z,77.40
2019-05-17T20:18:55.961Z,77.05
2019-05-17T20:21:25.549Z,77.60
2019-05-17T20:23:55.104Z,78.30
2019-05-17T20:26:24.707Z,77.94
2019-05-17T20:28:54.207Z,77.76
2019-05-17T20:31:23.691Z,78.21
2019-05-17T20:33:53.256Z,78.21
2019-05-17T20:36:22.908Z,78.86
2019-05-17T20:38:52.357Z,78.86
2019-05-17T20:41:21.931Z,78.93
2019-05-17T20:43:51.519Z,78.73
2019-05-17T20:46:21.184Z,79.23
2019-05-17T20:48:50.712Z,79.23
2019-05-17T20:51:20.175Z,79.12
2019-05-17T20:53:49.635Z,80.45
2019-05-17T20:56:32.019Z,80.45
2019-05-17T20:58:50.703Z,80.25
2019-05-17T21:01:20.159Z,79.83
2019-05-17T21:03:49.720Z,79.83
2019-05-17T21:06:19.247Z,79.83
2019-05-17T21:08:48.879Z,79.83
2019-05-17T21:11:18.354Z,80.71
2019-05-17T21:13:47.931Z,80.14
2019-05-17T21:16:17.377Z,80.14
2019-05-17T21:18:46.877Z,81.07
2019-05-17T21:21:16.729Z,80.32
2019-05-17T21:23:46.181Z,80.52
2019-05-17T21:26:15.739Z,80.52
2019-05-17T21:28:47.227Z,80.62
2019-05-17T21:31:16.462Z,80.62
2019-05-17T21:33:45.880Z,80.61
2019-05-17T21:36:15.354Z,80.60
2019-05-17T21:38:45.062Z,81.99
2019-05-17T21:41:14.582Z,81.99
2019-05-17T21:43:44.153Z,81.56
2019-05-17T21:46:13.717Z,81.37
2019-05-17T21:48:43.265Z,81.37
2019-05-17T21:51:12.805Z,81.35
2019-05-17T21:53:42.345Z,81.40
2019-05-17T21:56:11.888Z,81.40
2019-05-17T21:58:41.409Z,81.23
2019-05-17T22:01:15.624Z,80.77
2019-05-17T22:03:45.398Z,80.80
2019-05-17T22:06:15.054Z,80.80
2019-05-17T22:08:44.651Z,81.17
2019-05-17T22:11:14.298Z,81.05
2019-05-17T22:13:43.750Z,80.39
2019-05-17T22:16:19.577Z,79.38
2019-05-17T22:18:44.795Z,79.14
2019-05-17T22:21:14.259Z,80.67
2019-05-17T22:23:43.807Z,80.22
2019-05-17T22:26:13.340Z,80.01
2019-05-17T22:28:42.846Z,79.50
2019-05-17T22:31:12.395Z,79.50
2019-05-17T22:33:41.937Z,79.50
2019-05-17T22:36:11.581Z,79.65
2019-05-17T22:38:41.061Z,79.23
2019-05-17T22:41:10.640Z,78.98
2019-05-17T22:43:40.138Z,78.13
2019-05-17T22:46:09.944Z,78.45
